createdAt,value
2022-10-31T00:01:29.382Z,11.47
2022-10-31T00:03:56.569Z,11.47
2022-10-31T00:06:24.314Z,11.48
2022-10-31T00:08:56.805Z,11.47
2022-10-31T00:11:24.976Z,11.47
2022-10-31T00:13:52.559Z,11.47
2022-10-31T00:16:22.302Z,11.45
2022-10-31T00:18:53.173Z,11.46
2022-10-31T00:21:20.787Z,11.47
2022-10-31T00:23:48.204Z,11.49
2022-10-31T00:26:15.661Z,11.49
2022-10-31T00:28:43.291Z,11.47
2022-10-31T00:31:12.377Z,11.47
2022-10-31T00:33:40.526Z,11.44
2022-10-31T00:36:11.304Z,11.40
2022-10-31T00:38:38.573Z,11.39
2022-10-31T00:41:05.651Z,11.34
2022-10-31T00:43:32.669Z,11.34
2022-10-31T00:45:59.770Z,11.29
2022-10-31T00:48:27.326Z,11.28
2022-10-31T00:50:54.354Z,11.27
2022-10-31T00:53:21.367Z,11.30
2022-10-31T00:55:48.841Z,11.31
2022-10-31T00:58:15.908Z,11.29
2022-10-31T01:00:46.688Z,11.28
2022-10-31T01:03:16.471Z,11.31
2022-10-31T01:05:43.505Z,11.26
2022-10-31T01:08:10.508Z,11.27
2022-10-31T01:10:37.501Z,11.23
2022-10-31T01:13:04.499Z,11.20
2022-10-31T01:15:31.813Z,11.17
2022-10-31T01:17:59.046Z,11.15
2022-10-31T01:20:26.236Z,11.07
2022-10-31T01:22:53.259Z,11.06
2022-10-31T01:25:20.285Z,11.04
2022-10-31T01:27:47.289Z,11.02
2022-10-31T01:30:14.308Z,11.00
2022-10-31T01:32:41.392Z,11.04
2022-10-31T01:35:08.432Z,11.01
2022-10-31T01:37:35.470Z,10.97
2022-10-31T01:40:02.506Z,10.94
2022-10-31T01:42:31.120Z,10.91
2022-10-31T01:45:02.233Z,10.87
2022-10-31T01:47:41.858Z,10.80
2022-10-31T01:50:37.463Z,10.68
2022-10-31T01:53:07.657Z,10.61
2022-10-31T01:55:40.246Z,10.53
2022-10-31T01:58:12.882Z,10.48
2022-10-31T02:00:43.069Z,10.46
2022-10-31T02:03:10.805Z,10.43
2022-10-31T02:05:38.448Z,10.43
2022-10-31T02:08:17.955Z,10.35
2022-10-31T02:10:45.337Z,10.27
2022-10-31T02:13:13.977Z,10.24
2022-10-31T02:15:43.886Z,10.24
2022-10-31T02:18:11.074Z,10.24
2022-10-31T02:21:13.395Z,10.21
2022-10-31T02:23:58.624Z,10.17
2022-10-31T02:27:04.122Z,10.16
2022-10-31T02:30:06.290Z,10.10
2022-10-31T02:32:53.811Z,10.06
2022-10-31T02:35:41.810Z,10.01
2022-10-31T02:38:25.455Z,10.00
2022-10-31T02:41:19.404Z,9.96
2022-10-31T02:44:01.462Z,9.93
2022-10-31T02:46:54.000Z,9.87
2022-10-31T02:49:51.465Z,9.77
2022-10-31T02:52:29.726Z,9.79
2022-10-31T02:54:57.258Z,9.68
2022-10-31T02:57:35.357Z,9.75
2022-10-31T03:00:06.451Z,9.80
2022-10-31T03:02:51.986Z,9.77
2022-10-31T03:05:18.962Z,9.77
2022-10-31T03:08:07.534Z,9.72
2022-10-31T03:10:54.459Z,9.68
2022-10-31T03:13:34.273Z,9.64
2022-10-31T03:16:27.914Z,9.64
2022-10-31T03:19:02.144Z,9.66
2022-10-31T03:22:18.567Z,9.64
2022-10-31T03:24:47.706Z,9.60
2022-10-31T03:27:17.713Z,9.57
2022-10-31T03:29:46.438Z,9.58
2022-10-31T03:32:42.707Z,9.58
2022-10-31T03:35:12.718Z,9.56
2022-10-31T03:37:41.484Z,9.52
2022-10-31T03:40:11.498Z,9.47
2022-10-31T03:42:43.838Z,9.39
2022-10-31T03:45:19.462Z,9.34
2022-10-31T03:47:46.573Z,9.34
2022-10-31T03:50:16.377Z,9.31
2022-10-31T03:52:53.085Z,9.28
2022-10-31T03:55:42.976Z,9.25
2022-10-31T03:58:34.253Z,9.25
2022-10-31T04:01:03.806Z,9.25
2022-10-31T04:03:35.387Z,9.19
2022-10-31T04:06:08.212Z,9.25
2022-10-31T04:09:00.675Z,9.22
2022-10-31T04:11:32.660Z,9.21
2022-10-31T04:14:02.579Z,9.19
2022-10-31T04:16:29.936Z,9.17
2022-10-31T04:18:57.236Z,9.18
2022-10-31T04:21:31.364Z,9.17
2022-10-31T04:23:59.006Z,9.10
2022-10-31T04:26:26.177Z,9.10
2022-10-31T04:28:53.200Z,9.04
2022-10-31T04:31:20.429Z,8.93
2022-10-31T04:33:47.603Z,8.95
2022-10-31T04:36:14.611Z,8.93
2022-10-31T04:38:41.598Z,8.94
2022-10-31T04:41:08.664Z,8.94
2022-10-31T04:43:35.688Z,8.91
2022-10-31T04:46:03.247Z,8.88
2022-10-31T04:48:30.295Z,8.87
2022-10-31T04:51:01.452Z,8.89
2022-10-31T04:53:29.210Z,8.86
2022-10-31T04:55:58.353Z,8.84
2022-10-31T04:58:25.396Z,8.82
2022-10-31T05:00:54.098Z,8.82
2022-10-31T05:03:21.283Z,8.80
2022-10-31T05:05:48.337Z,8.75
2022-10-31T05:08:15.800Z,8.68
2022-10-31T05:10:42.859Z,8.70
2022-10-31T05:13:10.082Z,8.72
2022-10-31T05:15:37.213Z,8.72
2022-10-31T05:18:04.700Z,8.70
2022-10-31T05:20:32.621Z,8.73
2022-10-31T05:23:01.322Z,8.75
2022-10-31T05:25:31.520Z,8.68
2022-10-31T05:27:58.874Z,8.75
2022-10-31T05:30:29.471Z,8.76
2022-10-31T05:32:57.675Z,8.76
2022-10-31T05:35:27.683Z,8.76
2022-10-31T05:37:54.746Z,8.76
2022-10-31T05:40:22.266Z,8.77
2022-10-31T05:42:52.763Z,8.80
2022-10-31T05:45:20.592Z,8.86
2022-10-31T05:47:59.248Z,8.89
2022-10-31T05:50:30.183Z,8.95
2022-10-31T05:52:57.254Z,9.00
2022-10-31T05:55:24.352Z,8.93
2022-10-31T05:57:51.390Z,9.01
2022-10-31T06:00:19.575Z,9.03
2022-10-31T06:02:46.690Z,9.05
2022-10-31T06:05:14.329Z,9.03
2022-10-31T06:07:41.400Z,9.06
2022-10-31T06:10:09.346Z,9.06
2022-10-31T06:12:38.585Z,9.01
2022-10-31T06:15:07.323Z,9.03
2022-10-31T06:17:35.583Z,9.04
2022-10-31T06:20:02.949Z,9.02
2022-10-31T06:22:30.390Z,9.02
2022-10-31T06:24:57.543Z,9.02
2022-10-31T06:27:25.064Z,8.97
2022-10-31T06:29:52.327Z,9.03
2022-10-31T06:32:19.503Z,9.03
2022-10-31T06:34:49.182Z,9.03
2022-10-31T06:37:16.759Z,9.05
2022-10-31T06:39:43.749Z,9.02
2022-10-31T06:42:11.207Z,9.11
2022-10-31T06:44:38.304Z,9.14
2022-10-31T06:47:06.387Z,9.17
2022-10-31T06:49:33.401Z,9.19
2022-10-31T06:52:00.812Z,9.23
2022-10-31T06:54:27.878Z,9.26
2022-10-31T06:56:54.915Z,9.29
2022-10-31T06:59:22.311Z,9.29
2022-10-31T07:01:49.386Z,9.31
2022-10-31T07:04:16.453Z,9.30
2022-10-31T07:06:46.992Z,9.30
2022-10-31T07:09:16.556Z,9.36
2022-10-31T07:11:43.607Z,9.34
2022-10-31T07:14:10.700Z,9.37
2022-10-31T07:16:37.697Z,9.37
2022-10-31T07:19:04.707Z,9.39
2022-10-31T07:21:31.691Z,9.42
2022-10-31T07:23:58.702Z,9.42
2022-10-31T07:26:25.782Z,9.36
2022-10-31T07:28:52.771Z,9.47
2022-10-31T07:31:19.771Z,9.48
2022-10-31T07:33:46.877Z,9.47
2022-10-31T07:36:13.913Z,9.49
2022-10-31T07:38:40.916Z,9.54
2022-10-31T07:41:07.992Z,9.54
2022-10-31T07:43:35.029Z,9.61
2022-10-31T07:46:02.082Z,9.64
2022-10-31T07:48:29.109Z,9.70
2022-10-31T07:50:56.336Z,9.76
2022-10-31T07:53:23.351Z,9.81
2022-10-31T07:55:50.362Z,9.87
2022-10-31T07:58:17.995Z,9.92
2022-10-31T08:00:47.066Z,9.97
2022-10-31T08:03:16.952Z,9.90
2022-10-31T08:05:46.771Z,10.03
2022-10-31T08:08:14.679Z,10.10
2022-10-31T08:10:42.046Z,10.23
2022-10-31T08:13:11.728Z,10.29
2022-10-31T08:15:40.883Z,10.40
2022-10-31T08:18:12.957Z,10.50
2022-10-31T08:20:40.780Z,10.62
2022-10-31T08:23:09.367Z,10.75
2022-10-31T08:25:38.921Z,10.83
2022-10-31T08:28:07.760Z,10.90
2022-10-31T08:30:37.008Z,10.98
2022-10-31T08:33:13.485Z,11.08
2022-10-31T08:35:41.083Z,11.15
2022-10-31T08:38:10.683Z,11.21
2022-10-31T08:40:38.675Z,11.29
2022-10-31T08:43:17.003Z,11.36
2022-10-31T08:45:45.186Z,11.40
2022-10-31T08:48:15.600Z,11.43
2022-10-31T08:50:43.651Z,11.45
2022-10-31T08:53:14.859Z,11.48
2022-10-31T08:55:43.386Z,11.47
2022-10-31T08:58:12.619Z,11.46
2022-10-31T09:00:39.953Z,11.49
2022-10-31T09:03:14.079Z,11.50
2022-10-31T09:05:41.398Z,11.46
2022-10-31T09:08:14.803Z,11.53
2022-10-31T09:10:43.793Z,11.59
2022-10-31T09:13:21.061Z,11.69
2022-10-31T09:15:50.200Z,11.75
2022-10-31T09:18:20.643Z,11.82
2022-10-31T09:20:49.234Z,11.93
2022-10-31T09:23:18.982Z,12.06
2022-10-31T09:25:50.659Z,12.18
2022-10-31T09:28:20.562Z,12.25
2022-10-31T09:30:49.751Z,12.34
2022-10-31T09:33:17.862Z,12.38
2022-10-31T09:35:45.002Z,12.47
2022-10-31T09:38:18.203Z,12.58
2022-10-31T09:41:07.341Z,12.68
2022-10-31T09:44:12.675Z,12.79
2022-10-31T09:46:49.216Z,12.93
2022-10-31T09:49:42.597Z,13.10
2022-10-31T09:52:25.458Z,13.22
2022-10-31T09:55:00.456Z,13.28
2022-10-31T09:57:34.306Z,13.28
2022-10-31T10:00:05.636Z,13.38
2022-10-31T10:02:49.552Z,13.45
2022-10-31T10:05:25.302Z,13.51
2022-10-31T10:08:11.696Z,13.61
2022-10-31T10:11:09.371Z,13.70
2022-10-31T10:13:49.011Z,13.73
2022-10-31T10:16:24.963Z,13.81
2022-10-31T10:19:01.551Z,13.86
2022-10-31T10:21:47.976Z,13.91
2022-10-31T10:24:23.787Z,13.95
2022-10-31T10:26:55.491Z,13.93
2022-10-31T10:29:30.388Z,14.05
2022-10-31T10:32:01.938Z,14.09
2022-10-31T10:34:38.139Z,14.13
2022-10-31T10:37:42.156Z,14.19
2022-10-31T10:40:16.898Z,14.19
2022-10-31T10:43:23.679Z,14.24
2022-10-31T10:46:38.932Z,14.29
2022-10-31T10:49:24.314Z,14.38
2022-10-31T10:52:19.355Z,14.43
2022-10-31T10:55:00.452Z,14.50
2022-10-31T10:57:57.508Z,14.58
2022-10-31T11:00:36.878Z,14.67
2022-10-31T11:03:06.007Z,14.73
2022-10-31T11:05:39.963Z,14.79
2022-10-31T11:08:07.639Z,14.88
2022-10-31T11:10:35.611Z,14.97
2022-10-31T11:13:24.184Z,15.05
2022-10-31T11:16:04.557Z,15.07
2022-10-31T11:18:33.833Z,15.02
2022-10-31T11:21:04.439Z,15.14
2022-10-31T11:23:33.249Z,15.17
2022-10-31T11:26:06.010Z,15.22
2022-10-31T11:28:35.815Z,15.21
2022-10-31T11:31:14.201Z,15.28
2022-10-31T11:33:50.849Z,15.38
2022-10-31T11:36:26.895Z,15.40
2022-10-31T11:38:54.996Z,15.45
2022-10-31T11:41:34.552Z,15.50
2022-10-31T11:44:12.778Z,15.50
2022-10-31T11:46:48.171Z,15.51
2022-10-31T11:49:20.629Z,15.50
2022-10-31T11:51:55.417Z,15.50
2022-10-31T11:54:30.593Z,15.54
2022-10-31T11:56:57.945Z,15.62
2022-10-31T11:59:30.602Z,15.54
2022-10-31T12:02:00.694Z,15.46
2022-10-31T12:04:38.437Z,15.49
2022-10-31T12:07:05.583Z,15.43
2022-10-31T12:09:36.852Z,15.41
2022-10-31T12:12:06.626Z,15.41
2022-10-31T12:15:03.959Z,15.32
2022-10-31T12:17:50.688Z,15.26
2022-10-31T12:20:39.225Z,15.18
2022-10-31T12:23:24.568Z,15.09
2022-10-31T12:26:05.659Z,15.09
2022-10-31T12:29:03.274Z,15.12
2022-10-31T12:31:48.031Z,15.08
2022-10-31T12:34:49.043Z,15.11
2022-10-31T12:37:19.098Z,15.14
2022-10-31T12:40:14.418Z,15.15
2022-10-31T12:42:47.205Z,15.27
2022-10-31T12:45:16.792Z,15.31
2022-10-31T12:48:19.892Z,15.32
2022-10-31T12:51:12.562Z,15.32
2022-10-31T12:53:57.735Z,15.33
2022-10-31T12:56:33.558Z,15.37
2022-10-31T12:59:05.725Z,15.41
2022-10-31T13:01:41.783Z,15.43
2022-10-31T13:04:19.079Z,15.49
2022-10-31T13:07:09.828Z,15.51
2022-10-31T13:09:43.673Z,15.56
2022-10-31T13:12:19.169Z,15.60
2022-10-31T13:14:52.626Z,15.60
2022-10-31T13:17:28.616Z,15.59
2022-10-31T13:20:09.253Z,15.55
2022-10-31T13:22:37.942Z,15.48
2022-10-31T13:25:16.010Z,15.50
2022-10-31T13:27:54.890Z,15.47
2022-10-31T13:30:28.746Z,15.47
2022-10-31T13:33:17.609Z,15.43
2022-10-31T13:35:53.911Z,15.39
2022-10-31T13:38:35.967Z,15.39
2022-10-31T13:41:13.808Z,15.39
2022-10-31T13:43:55.995Z,15.42
2022-10-31T13:46:35.866Z,15.45
2022-10-31T13:49:03.889Z,15.49
2022-10-31T13:51:36.122Z,15.55
2022-10-31T13:54:21.473Z,15.62
2022-10-31T13:56:54.573Z,15.63
2022-10-31T13:59:38.074Z,15.71
2022-10-31T14:02:16.631Z,15.74
2022-10-31T14:07:23.757Z,15.75
2022-10-31T14:10:03.499Z,15.73
2022-10-31T14:12:45.708Z,15.69
2022-10-31T14:15:16.064Z,15.74
2022-10-31T14:17:58.381Z,15.73
2022-10-31T14:20:32.105Z,15.74
2022-10-31T14:25:34.393Z,15.65
2022-10-31T14:28:18.912Z,15.64
2022-10-31T14:30:57.650Z,15.61
2022-10-31T14:33:28.217Z,15.54
2022-10-31T14:36:01.409Z,15.62
2022-10-31T14:38:56.872Z,15.57
2022-10-31T14:41:41.299Z,15.59
2022-10-31T14:44:10.910Z,15.59
2022-10-31T14:47:02.455Z,15.54
2022-10-31T14:49:48.104Z,15.48
2022-10-31T14:52:18.155Z,15.45
2022-10-31T14:54:50.493Z,15.39
2022-10-31T14:57:30.503Z,15.37
2022-10-31T15:00:06.092Z,15.30
2022-10-31T15:02:39.995Z,15.25
2022-10-31T15:05:11.203Z,15.22
2022-10-31T15:07:52.074Z,15.18
2022-10-31T15:10:24.960Z,15.15
2022-10-31T15:12:52.310Z,15.10
2022-10-31T15:15:27.201Z,15.07
2022-10-31T15:18:02.528Z,15.03
2022-10-31T15:20:36.952Z,15.03
2022-10-31T15:23:04.050Z,15.00
2022-10-31T15:25:35.714Z,15.00
2022-10-31T15:28:13.474Z,14.99
2022-10-31T15:30:40.556Z,15.00
2022-10-31T15:33:26.381Z,14.97
2022-10-31T15:36:03.451Z,14.94
2022-10-31T15:38:31.731Z,14.91
2022-10-31T15:41:21.731Z,14.88
2022-10-31T15:43:49.593Z,14.88
2022-10-31T15:46:16.799Z,14.85
2022-10-31T15:48:49.777Z,14.82
2022-10-31T15:51:16.938Z,14.79
2022-10-31T15:53:53.419Z,14.76
2022-10-31T15:56:23.824Z,14.72
2022-10-31T15:58:53.328Z,14.67
2022-10-31T16:01:38.450Z,14.64
2022-10-31T16:04:12.730Z,14.62
2022-10-31T16:06:39.979Z,14.61
2022-10-31T16:09:22.914Z,14.52
2022-10-31T16:11:50.663Z,14.56
2022-10-31T16:14:25.694Z,14.49
2022-10-31T16:16:56.513Z,14.53
2022-10-31T16:19:34.765Z,14.48
2022-10-31T16:22:09.485Z,14.51
2022-10-31T16:25:03.098Z,14.53
2022-10-31T16:27:32.726Z,14.51
2022-10-31T16:30:02.544Z,14.41
2022-10-31T16:32:31.791Z,14.44
2022-10-31T16:35:01.521Z,14.42
2022-10-31T16:37:28.723Z,14.39
2022-10-31T16:39:55.753Z,14.34
2022-10-31T16:42:22.836Z,14.24
2022-10-31T16:44:50.658Z,14.27
2022-10-31T16:47:18.607Z,14.24
2022-10-31T16:49:50.068Z,14.19
2022-10-31T16:52:18.454Z,14.09
2022-10-31T16:54:45.626Z,14.08
2022-10-31T16:57:21.066Z,14.04
2022-10-31T16:59:52.143Z,13.98
2022-10-31T17:02:19.477Z,13.98
2022-10-31T17:04:48.529Z,13.97
2022-10-31T17:07:17.942Z,13.97
2022-10-31T17:09:45.007Z,13.99
2022-10-31T17:12:19.753Z,13.98
2022-10-31T17:14:50.879Z,14.04
2022-10-31T17:17:17.918Z,14.00
2022-10-31T17:19:44.945Z,14.03
2022-10-31T17:22:14.182Z,14.00
2022-10-31T17:24:41.366Z,13.99
2022-10-31T17:27:08.486Z,14.01
2022-10-31T17:29:36.152Z,13.95
2022-10-31T17:32:04.341Z,13.98
2022-10-31T17:34:31.801Z,13.95
2022-10-31T17:36:58.845Z,13.96
2022-10-31T17:39:26.041Z,13.89
2022-10-31T17:41:53.121Z,13.86
2022-10-31T17:44:20.218Z,13.81
2022-10-31T17:46:47.250Z,13.76
2022-10-31T17:49:14.365Z,13.78
2022-10-31T17:51:41.953Z,13.77
2022-10-31T17:54:10.839Z,13.72
2022-10-31T17:56:37.829Z,13.69
2022-10-31T18:01:36.858Z,13.70
2022-10-31T18:04:04.068Z,13.61
2022-10-31T18:06:31.717Z,13.67
2022-10-31T18:09:03.357Z,13.64
2022-10-31T18:11:32.109Z,13.64
2022-10-31T18:14:00.506Z,13.61
2022-10-31T18:16:27.658Z,13.63
2022-10-31T18:18:59.198Z,13.60
2022-10-31T18:21:26.252Z,13.54
2022-10-31T18:23:55.663Z,13.56
2022-10-31T18:26:24.382Z,13.50
2022-10-31T18:28:52.085Z,13.55
2022-10-31T18:31:20.036Z,13.52
2022-10-31T18:33:47.175Z,13.48
2022-10-31T18:36:14.334Z,13.46
2022-10-31T18:38:44.873Z,13.47
2022-10-31T18:41:13.269Z,13.45
2022-10-31T18:43:40.636Z,13.39
2022-10-31T18:46:12.146Z,13.44
2022-10-31T18:48:41.610Z,13.42
2022-10-31T18:51:11.580Z,13.42
2022-10-31T18:53:38.829Z,13.38
2022-10-31T18:56:10.405Z,13.43
2022-10-31T18:58:37.866Z,13.42
2022-10-31T19:01:09.863Z,13.41
2022-10-31T19:03:38.213Z,13.36
2022-10-31T19:06:07.131Z,13.39
2022-10-31T19:08:34.441Z,13.30
2022-10-31T19:11:09.942Z,13.33
2022-10-31T19:13:39.088Z,13.32
2022-10-31T19:16:12.714Z,13.29
2022-10-31T19:18:40.554Z,13.31
2022-10-31T19:21:09.804Z,13.30
2022-10-31T19:23:37.278Z,13.29
2022-10-31T19:26:04.695Z,13.26
2022-10-31T19:28:34.605Z,13.25
2022-10-31T19:31:01.797Z,13.26
2022-10-31T19:33:35.025Z,13.23
2022-10-31T19:36:13.203Z,13.25
2022-10-31T19:38:43.814Z,13.25
2022-10-31T19:41:14.452Z,13.24
2022-10-31T19:43:41.773Z,13.23
2022-10-31T19:46:17.623Z,13.21
2022-10-31T19:48:54.937Z,13.25
2022-10-31T19:51:22.330Z,13.28
2022-10-31T19:53:49.763Z,13.29
2022-10-31T19:56:19.529Z,13.29
2022-10-31T19:58:46.618Z,13.29
2022-10-31T20:01:22.180Z,13.32
2022-10-31T20:03:49.940Z,13.34
2022-10-31T20:06:31.910Z,13.34
2022-10-31T20:09:01.736Z,13.34
2022-10-31T20:11:30.726Z,13.45
2022-10-31T20:13:58.960Z,13.50
2022-10-31T20:16:27.667Z,13.51
2022-10-31T20:18:55.768Z,13.54
2022-10-31T20:21:26.370Z,13.56
2022-10-31T20:23:58.049Z,13.58
2022-10-31T20:26:25.657Z,13.48
2022-10-31T20:28:52.936Z,13.55
2022-10-31T20:31:22.148Z,13.56
2022-10-31T20:33:50.077Z,13.47
2022-10-31T20:36:21.148Z,13.58
2022-10-31T20:38:48.528Z,13.60
2022-10-31T20:41:16.183Z,13.59
2022-10-31T20:43:43.701Z,13.60
2022-10-31T20:46:16.181Z,13.59
2022-10-31T20:48:43.205Z,13.54
2022-10-31T20:53:49.448Z,13.53
2022-10-31T20:56:19.320Z,13.52
2022-10-31T20:58:47.047Z,13.52
2022-10-31T21:01:22.698Z,13.58
2022-10-31T21:03:50.488Z,13.59
2022-10-31T21:06:18.722Z,13.61
2022-10-31T21:08:46.660Z,13.63
2022-10-31T21:11:16.564Z,13.64
2022-10-31T21:13:45.872Z,13.69
2022-10-31T21:16:17.643Z,13.69
2022-10-31T21:18:46.245Z,13.71
2022-10-31T21:21:24.148Z,13.73
2022-10-31T21:23:57.714Z,13.70
2022-10-31T21:26:26.872Z,13.70
2022-10-31T21:28:57.195Z,13.68
2022-10-31T21:31:25.219Z,13.68
2022-10-31T21:33:52.270Z,13.68
2022-10-31T21:36:19.546Z,13.59
2022-10-31T21:38:51.287Z,13.64
2022-10-31T21:41:20.129Z,13.62
2022-10-31T21:43:50.102Z,13.60
2022-10-31T21:46:19.896Z,13.60
2022-10-31T21:48:47.640Z,13.57
2022-10-31T21:51:20.040Z,13.57
2022-10-31T21:54:05.924Z,13.57
2022-10-31T21:56:33.652Z,13.54
2022-10-31T21:59:02.006Z,13.55
2022-10-31T22:01:29.855Z,13.55
2022-10-31T22:03:58.494Z,13.55
2022-10-31T22:06:26.641Z,13.59
2022-10-31T22:08:54.753Z,13.56
2022-10-31T22:11:22.834Z,13.50
2022-10-31T22:13:50.569Z,13.57
2022-10-31T22:16:19.458Z,13.62
2022-10-31T22:18:46.935Z,13.69
2022-10-31T22:21:16.719Z,13.71
2022-10-31T22:23:44.366Z,13.74
2022-10-31T22:26:16.220Z,13.74
2022-10-31T22:28:47.812Z,13.70
2022-10-31T22:31:17.484Z,13.69
2022-10-31T22:33:47.944Z,13.69
2022-10-31T22:36:26.311Z,13.68
2022-10-31T22:38:53.395Z,13.75
2022-10-31T22:41:22.804Z,13.76
2022-10-31T22:43:50.060Z,13.85
2022-10-31T22:46:19.717Z,13.87
2022-10-31T22:48:49.644Z,13.93
2022-10-31T22:51:25.363Z,13.95
2022-10-31T22:53:54.238Z,13.90
2022-10-31T22:56:22.451Z,13.96
2022-10-31T22:58:50.057Z,13.98
2022-10-31T23:01:19.442Z,13.99
2022-10-31T23:03:46.820Z,13.98
2022-10-31T23:06:22.075Z,13.99
2022-10-31T23:08:50.551Z,13.95
2022-10-31T23:11:23.269Z,14.03
2022-10-31T23:14:13.392Z,14.04
2022-10-31T23:16:40.354Z,14.05
2022-10-31T23:19:09.186Z,14.03
2022-10-31T23:21:54.313Z,14.04
2022-10-31T23:24:25.140Z,14.01
2022-10-31T23:27:06.999Z,13.88
2022-10-31T23:29:45.794Z,13.92
2022-10-31T23:32:25.151Z,13.81
2022-10-31T23:34:54.612Z,13.79
2022-10-31T23:37:23.489Z,13.73
2022-10-31T23:39:50.553Z,13.71
2022-10-31T23:42:18.890Z,13.66
2022-10-31T23:44:46.527Z,13.67
2022-10-31T23:47:14.535Z,13.64
2022-10-31T23:49:41.703Z,13.66
2022-10-31T23:52:09.453Z,13.51
2022-10-31T23:54:36.749Z,13.57
2022-10-31T23:57:04.627Z,13.58
2022-10-31T23:59:32.872Z,13.59
